La Verne, California
Current Conditions -  °F | °C
As of 1:53 AM on Friday 19 Dec 2014 (Local Time) from KONT Reporting Station
Few Clouds Few Clouds  
Wind Chill: 45°   Ceiling: Unl
Heat Index: 47°   Visibility: 10mi
Dew Point: 42°   Wind: 5mph
Humidity: 83%   Direction: 30°NNE
Pressure: 30.2"   Gusts: NA
Location:  34.11°N, 117.76°W
Report Text: KONT 190953Z 03004KT 10SM FEW200 08/06 A3020 RMK AO2 SLP226 T00830056
Loading
Personal Weather Stations






























Interactive Weather Map New forecast layout! Learn more

10-Day Weather Forecast

Advertisements
Track Severe Weather on mobile